sensor_id;sensor_type;location;lat;lon;timestamp;pressure;altitude;pressure_sealevel;temperature;humidity
61035;BME280;46916;40.564;-7.958;2024-02-15T00:00:19;96939.91;;;16.09;100.00
61035;BME280;46916;40.564;-7.958;2024-02-15T00:02:19;96951.78;;;16.14;100.00
61035;BME280;46916;40.564;-7.958;2024-02-15T00:04:20;96935.78;;;16.07;100.00
61035;BME280;46916;40.564;-7.958;2024-02-15T00:06:20;96945.59;;;15.98;100.00
61035;BME280;46916;40.564;-7.958;2024-02-15T00:08:21;96931.34;;;15.84;100.00
61035;BME280;46916;40.564;-7.958;2024-02-15T00:10:22;96925.91;;;15.78;100.00
61035;BME280;46916;40.564;-7.958;2024-02-15T00:12:25;96920.50;;;15.71;100.00
61035;BME280;46916;40.564;-7.958;2024-02-15T00:14:26;96905.84;;;15.69;100.00
61035;BME280;46916;40.564;-7.958;2024-02-15T00:16:28;96905.84;;;15.69;100.00
61035;BME280;46916;40.564;-7.958;2024-02-15T00:18:29;96881.28;;;15.68;100.00
61035;BME280;46916;40.564;-7.958;2024-02-15T00:20:30;96875.81;;;15.70;100.00
61035;BME280;46916;40.564;-7.958;2024-02-15T00:22:31;96874.66;;;15.72;100.00
61035;BME280;46916;40.564;-7.958;2024-02-15T00:24:33;96867.56;;;15.73;100.00
61035;BME280;46916;40.564;-7.958;2024-02-15T00:26:36;96877.28;;;15.72;100.00
61035;BME280;46916;40.564;-7.958;2024-02-15T00:28:37;96868.56;;;15.72;100.00
61035;BME280;46916;40.564;-7.958;2024-02-15T00:30:38;96865.91;;;15.72;100.00
61035;BME280;46916;40.564;-7.958;2024-02-15T00:32:38;96865.25;;;15.70;100.00
61035;BME280;46916;40.564;-7.958;2024-02-15T00:34:39;96884.75;;;15.69;100.00
61035;BME280;46916;40.564;-7.958;2024-02-15T00:36:42;96874.34;;;15.67;100.00
61035;BME280;46916;40.564;-7.958;2024-02-15T00:38:42;96876.97;;;15.67;100.00
61035;BME280;46916;40.564;-7.958;2024-02-15T00:40:43;96870.25;;;15.65;100.00
61035;BME280;46916;40.564;-7.958;2024-02-15T00:42:43;96873.72;;;15.57;100.00
61035;BME280;46916;40.564;-7.958;2024-02-15T00:44:44;96858.75;;;15.49;100.00
61035;BME280;46916;40.564;-7.958;2024-02-15T00:46:45;96864.75;;;15.43;100.00
61035;BME280;46916;40.564;-7.958;2024-02-15T00:48:46;96873.63;;;15.42;100.00
61035;BME280;46916;40.564;-7.958;2024-02-15T00:50:47;96882.56;;;15.41;100.00
61035;BME280;46916;40.564;-7.958;2024-02-15T00:52:48;96886.19;;;15.40;100.00
61035;BME280;46916;40.564;-7.958;2024-02-15T00:54:49;96893.81;;;15.35;100.00
61035;BME280;46916;40.564;-7.958;2024-02-15T00:56:50;96877.50;;;15.31;100.00
61035;BME280;46916;40.564;-7.958;2024-02-15T00:58:51;96889.22;;;15.29;100.00
61035;BME280;46916;40.564;-7.958;2024-02-15T01:00:52;96879.66;;;15.28;100.00
61035;BME280;46916;40.564;-7.958;2024-02-15T01:02:54;96874.38;;;15.28;100.00
61035;BME280;46916;40.564;-7.958;2024-02-15T01:04:54;96863.16;;;15.26;100.00
61035;BME280;46916;40.564;-7.958;2024-02-15T01:06:57;96856.91;;;15.27;100.00
61035;BME280;46916;40.564;-7.958;2024-02-15T01:08:57;96863.16;;;15.26;100.00
61035;BME280;46916;40.564;-7.958;2024-02-15T01:10:58;96875.53;;;15.25;100.00
61035;BME280;46916;40.564;-7.958;2024-02-15T01:12:59;96879.00;;;15.26;100.00
61035;BME280;46916;40.564;-7.958;2024-02-15T01:14:59;96868.09;;;15.29;100.00
61035;BME280;46916;40.564;-7.958;2024-02-15T01:17:00;96877.66;;;15.30;100.00
61035;BME280;46916;40.564;-7.958;2024-02-15T01:19:00;96860.66;;;15.32;100.00
61035;BME280;46916;40.564;-7.958;2024-02-15T01:21:01;96855.22;;;15.34;100.00
61035;BME280;46916;40.564;-7.958;2024-02-15T01:23:02;96846.66;;;15.32;100.00
61035;BME280;46916;40.564;-7.958;2024-02-15T01:25:02;96840.38;;;15.33;100.00
61035;BME280;46916;40.564;-7.958;2024-02-15T01:27:03;96835.94;;;15.33;100.00
61035;BME280;46916;40.564;-7.958;2024-02-15T01:29:03;96825.38;;;15.33;100.00
61035;BME280;46916;40.564;-7.958;2024-02-15T01:31:04;96830.50;;;15.35;100.00
61035;BME280;46916;40.564;-7.958;2024-02-15T01:33:07;96826.84;;;15.36;100.00
61035;BME280;46916;40.564;-7.958;2024-02-15T01:35:08;96818.75;;;15.38;100.00
61035;BME280;46916;40.564;-7.958;2024-02-15T01:37:10;96813.31;;;15.39;100.00
61035;BME280;46916;40.564;-7.958;2024-02-15T01:39:10;96819.03;;;15.43;100.00
61035;BME280;46916;40.564;-7.958;2024-02-15T01:41:11;96816.88;;;15.46;100.00
61035;BME280;46916;40.564;-7.958;2024-02-15T01:43:12;96818.28;;;15.57;97.79
61035;BME280;46916;40.564;-7.958;2024-02-15T01:45:12;96820.31;;;15.78;94.36
61035;BME280;46916;40.564;-7.958;2024-02-15T01:47:13;96813.06;;;15.95;91.93
61035;BME280;46916;40.564;-7.958;2024-02-15T01:49:13;96811.50;;;16.08;91.46
61035;BME280;46916;40.564;-7.958;2024-02-15T01:51:15;96822.59;;;16.19;90.56
61035;BME280;46916;40.564;-7.958;2024-02-15T01:53:16;96817.78;;;16.22;90.07
61035;BME280;46916;40.564;-7.958;2024-02-15T01:55:17;96823.88;;;16.23;91.25
61035;BME280;46916;40.564;-7.958;2024-02-15T01:57:19;96828.34;;;16.22;91.57
61035;BME280;46916;40.564;-7.958;2024-02-15T01:59:22;96812.50;;;16.22;92.00
61035;BME280;46916;40.564;-7.958;2024-02-15T02:01:23;96820.44;;;16.22;92.58
61035;BME280;46916;40.564;-7.958;2024-02-15T02:03:23;96818.97;;;16.20;92.48
61035;BME280;46916;40.564;-7.958;2024-02-15T02:05:24;96817.31;;;16.19;92.53
61035;BME280;46916;40.564;-7.958;2024-02-15T02:07:25;96810.41;;;16.18;92.73
61035;BME280;46916;40.564;-7.958;2024-02-15T02:09:26;96813.88;;;16.18;91.99
61035;BME280;46916;40.564;-7.958;2024-02-15T02:11:27;96822.25;;;16.22;91.48
61035;BME280;46916;40.564;-7.958;2024-02-15T02:13:29;96818.59;;;16.23;91.24
61035;BME280;46916;40.564;-7.958;2024-02-15T02:15:31;96812.16;;;16.25;90.33
61035;BME280;46916;40.564;-7.958;2024-02-15T02:17:32;96812.63;;;16.29;89.58
61035;BME280;46916;40.564;-7.958;2024-02-15T02:19:33;96803.03;;;16.28;89.75
61035;BME280;46916;40.564;-7.958;2024-02-15T02:21:34;96799.56;;;16.27;89.79
61035;BME280;46916;40.564;-7.958;2024-02-15T02:23:35;96797.75;;;16.28;89.83
61035;BME280;46916;40.564;-7.958;2024-02-15T02:25:36;96796.75;;;16.29;89.51
61035;BME280;46916;40.564;-7.958;2024-02-15T02:27:37;96785.19;;;16.30;87.53
61035;BME280;46916;40.564;-7.958;2024-02-15T02:29:41;96779.53;;;16.33;86.94
61035;BME280;46916;40.564;-7.958;2024-02-15T02:31:43;96783.81;;;16.34;86.84
61035;BME280;46916;40.564;-7.958;2024-02-15T02:33:47;96786.25;;;16.35;86.91
61035;BME280;46916;40.564;-7.958;2024-02-15T02:35:48;96783.81;;;16.34;86.68
61035;BME280;46916;40.564;-7.958;2024-02-15T02:37:48;96791.75;;;16.34;86.90
61035;BME280;46916;40.564;-7.958;2024-02-15T02:39:49;96788.44;;;16.32;86.92
61035;BME280;46916;40.564;-7.958;2024-02-15T02:41:50;96790.94;;;16.33;86.92
61035;BME280;46916;40.564;-7.958;2024-02-15T02:43:50;96796.22;;;16.33;86.24
61035;BME280;46916;40.564;-7.958;2024-02-15T02:45:51;96778.69;;;16.32;85.84
61035;BME280;46916;40.564;-7.958;2024-02-15T02:47:51;96787.47;;;16.33;85.91
61035;BME280;46916;40.564;-7.958;2024-02-15T02:49:52;96783.81;;;16.34;84.77
61035;BME280;46916;40.564;-7.958;2024-02-15T02:51:53;96776.50;;;16.36;84.80
61035;BME280;46916;40.564;-7.958;2024-02-15T02:53:53;96772.25;;;16.35;85.13
61035;BME280;46916;40.564;-7.958;2024-02-15T02:55:55;96760.19;;;16.32;85.45
61035;BME280;46916;40.564;-7.958;2024-02-15T02:57:56;96765.06;;;16.29;85.77
61035;BME280;46916;40.564;-7.958;2024-02-15T02:59:57;96764.22;;;16.28;85.12
61035;BME280;46916;40.564;-7.958;2024-02-15T03:01:57;96767.03;;;16.27;84.98
61035;BME280;46916;40.564;-7.958;2024-02-15T03:03:58;96755.84;;;16.25;85.29
61035;BME280;46916;40.564;-7.958;2024-02-15T03:05:58;96744.63;;;16.23;85.11
61035;BME280;46916;40.564;-7.958;2024-02-15T03:07:59;96746.44;;;16.22;83.94
61035;BME280;46916;40.564;-7.958;2024-02-15T03:10:00;96742.81;;;16.23;83.26
61035;BME280;46916;40.564;-7.958;2024-02-15T03:12:00;96745.44;;;16.23;83.62
61035;BME280;46916;40.564;-7.958;2024-02-15T03:14:01;96750.56;;;16.25;83.31
61035;BME280;46916;40.564;-7.958;2024-02-15T03:16:04;96748.91;;;16.24;83.59
61035;BME280;46916;40.564;-7.958;2024-02-15T03:18:06;96743.16;;;16.20;83.66
61035;BME280;46916;40.564;-7.958;2024-02-15T03:20:07;96742.53;;;16.18;84.24
61035;BME280;46916;40.564;-7.958;2024-02-15T03:22:24;96746.34;;;16.16;84.55
61035;BME280;46916;40.564;-7.958;2024-02-15T03:24:26;96744.09;;;16.13;84.51
61035;BME280;46916;40.564;-7.958;2024-02-15T03:26:30;96753.00;;;16.12;84.43
61035;BME280;46916;40.564;-7.958;2024-02-15T03:28:36;96748.09;;;16.08;84.99
61035;BME280;46916;40.564;-7.958;2024-02-15T03:30:38;96743.16;;;16.05;85.55
61035;BME280;46916;40.564;-7.958;2024-02-15T03:32:39;96734.59;;;16.03;85.80
61035;BME280;46916;40.564;-7.958;2024-02-15T03:34:41;96739.25;;;16.01;85.90
61035;BME280;46916;40.564;-7.958;2024-02-15T03:36:42;96726.38;;;15.98;86.40
61035;BME280;46916;40.564;-7.958;2024-02-15T03:38:43;96727.75;;;15.94;86.98
61035;BME280;46916;40.564;-7.958;2024-02-15T03:40:45;96725.47;;;15.91;87.54
61035;BME280;46916;40.564;-7.958;2024-02-15T03:42:45;96729.47;;;15.87;88.10
61035;BME280;46916;40.564;-7.958;2024-02-15T03:44:47;96720.44;;;15.81;88.71
61035;BME280;46916;40.564;-7.958;2024-02-15T03:46:48;96723.44;;;15.78;89.26
61035;BME280;46916;40.564;-7.958;2024-02-15T03:48:51;96715.88;;;15.75;89.67
61035;BME280;46916;40.564;-7.958;2024-02-15T03:50:52;96718.09;;;15.72;89.67
61035;BME280;46916;40.564;-7.958;2024-02-15T03:52:53;96716.59;;;15.69;90.01
61035;BME280;46916;40.564;-7.958;2024-02-15T03:54:55;96723.53;;;15.70;89.77
61035;BME280;46916;40.564;-7.958;2024-02-15T03:56:55;96729.00;;;15.69;89.35
61035;BME280;46916;40.564;-7.958;2024-02-15T03:58:57;96736.09;;;15.68;89.89
61035;BME280;46916;40.564;-7.958;2024-02-15T04:00:59;96744.38;;;15.65;89.90
61035;BME280;46916;40.564;-7.958;2024-02-15T04:02:59;96749.81;;;15.64;89.98
61035;BME280;46916;40.564;-7.958;2024-02-15T04:05:01;96758.88;;;15.61;90.12
61035;BME280;46916;40.564;-7.958;2024-02-15T04:07:02;96762.53;;;15.60;90.26
61035;BME280;46916;40.564;-7.958;2024-02-15T04:09:04;96773.25;;;15.58;90.38
61035;BME280;46916;40.564;-7.958;2024-02-15T04:11:05;96780.34;;;15.58;90.03
61035;BME280;46916;40.564;-7.958;2024-02-15T04:13:07;96784.47;;;15.60;89.50
61035;BME280;46916;40.564;-7.958;2024-02-15T04:15:08;96784.13;;;15.64;89.39
61035;BME280;46916;40.564;-7.958;2024-02-15T04:17:12;96784.94;;;15.64;88.96
61035;BME280;46916;40.564;-7.958;2024-02-15T04:19:21;96790.06;;;15.66;87.98
61035;BME280;46916;40.564;-7.958;2024-02-15T04:21:22;96790.88;;;15.66;88.31
61035;BME280;46916;40.564;-7.958;2024-02-15T04:23:23;96785.78;;;15.65;87.07
61035;BME280;46916;40.564;-7.958;2024-02-15T04:25:24;96785.59;;;15.66;87.46
61035;BME280;46916;40.564;-7.958;2024-02-15T04:27:28;96780.78;;;15.70;86.81
61035;BME280;46916;40.564;-7.958;2024-02-15T04:29:28;96770.03;;;15.71;85.45
61035;BME280;46916;40.564;-7.958;2024-02-15T04:31:29;96769.34;;;15.77;82.27
61035;BME280;46916;40.564;-7.958;2024-02-15T04:33:29;96762.34;;;15.84;82.68
61035;BME280;46916;40.564;-7.958;2024-02-15T04:35:30;96763.63;;;15.89;82.00
61035;BME280;46916;40.564;-7.958;2024-02-15T04:37:31;96762.91;;;15.95;81.82
61035;BME280;46916;40.564;-7.958;2024-02-15T04:39:32;96762.34;;;15.99;80.80
61035;BME280;46916;40.564;-7.958;2024-02-15T04:41:33;96762.81;;;16.03;80.69
61035;BME280;46916;40.564;-7.958;2024-02-15T04:43:34;96774.03;;;16.05;80.87
61035;BME280;46916;40.564;-7.958;2024-02-15T04:45:35;96779.47;;;16.03;81.39
61035;BME280;46916;40.564;-7.958;2024-02-15T04:47:36;96781.31;;;16.03;80.92
61035;BME280;46916;40.564;-7.958;2024-02-15T04:49:37;96780.50;;;16.02;81.11
61035;BME280;46916;40.564;-7.958;2024-02-15T04:51:38;96784.13;;;16.01;81.14
61035;BME280;46916;40.564;-7.958;2024-02-15T04:53:41;96778.66;;;16.03;80.59
61035;BME280;46916;40.564;-7.958;2024-02-15T04:55:41;96778.31;;;16.06;80.18
61035;BME280;46916;40.564;-7.958;2024-02-15T04:57:42;96785.06;;;16.08;79.14
61035;BME280;46916;40.564;-7.958;2024-02-15T04:59:43;96794.63;;;16.09;79.54
61035;BME280;46916;40.564;-7.958;2024-02-15T05:01:47;96796.25;;;16.10;79.87
61035;BME280;46916;40.564;-7.958;2024-02-15T05:03:49;96797.28;;;16.09;79.86
61035;BME280;46916;40.564;-7.958;2024-02-15T05:05:50;96800.91;;;16.08;79.26
61035;BME280;46916;40.564;-7.958;2024-02-15T05:07:50;96804.19;;;16.10;78.96
61035;BME280;46916;40.564;-7.958;2024-02-15T05:09:53;96800.53;;;16.12;78.97
61035;BME280;46916;40.564;-7.958;2024-02-15T05:11:53;96801.34;;;16.12;78.65
61035;BME280;46916;40.564;-7.958;2024-02-15T05:13:53;96798.38;;;16.15;77.87
61035;BME280;46916;40.564;-7.958;2024-02-15T05:15:54;96807.56;;;16.19;77.14
61035;BME280;46916;40.564;-7.958;2024-02-15T05:17:55;96822.72;;;16.25;76.96
61035;BME280;46916;40.564;-7.958;2024-02-15T05:19:56;96816.06;;;16.29;77.17
61035;BME280;46916;40.564;-7.958;2024-02-15T05:21:59;96826.81;;;16.28;77.69
61035;BME280;46916;40.564;-7.958;2024-02-15T05:24:01;96819.88;;;16.27;77.58
61035;BME280;46916;40.564;-7.958;2024-02-15T05:26:03;96824.34;;;16.26;76.95
61035;BME280;46916;40.564;-7.958;2024-02-15T05:28:03;96819.88;;;16.27;77.69
61035;BME280;46916;40.564;-7.958;2024-02-15T05:30:06;96820.69;;;16.27;77.36
61035;BME280;46916;40.564;-7.958;2024-02-15T05:32:07;96824.34;;;16.26;78.04
61035;BME280;46916;40.564;-7.958;2024-02-15T05:34:09;96820.25;;;16.24;78.14
61035;BME280;46916;40.564;-7.958;2024-02-15T05:36:11;96828.34;;;16.22;77.93
61035;BME280;46916;40.564;-7.958;2024-02-15T05:38:12;96831.19;;;16.21;78.44
61035;BME280;46916;40.564;-7.958;2024-02-15T05:40:15;96827.88;;;16.19;78.69
61035;BME280;46916;40.564;-7.958;2024-02-15T05:42:16;96828.91;;;16.18;78.53
61035;BME280;46916;40.564;-7.958;2024-02-15T05:44:16;96829.72;;;16.18;78.88
61035;BME280;46916;40.564;-7.958;2024-02-15T05:46:20;96830.72;;;16.17;78.84
61035;BME280;46916;40.564;-7.958;2024-02-15T05:48:21;96822.78;;;16.17;79.01
61035;BME280;46916;40.564;-7.958;2024-02-15T05:50:22;96827.06;;;16.18;79.37
61035;BME280;46916;40.564;-7.958;2024-02-15T05:52:23;96831.69;;;16.16;79.57
61035;BME280;46916;40.564;-7.958;2024-02-15T05:54:24;96834.53;;;16.15;79.90
61035;BME280;46916;40.564;-7.958;2024-02-15T05:56:25;96840.97;;;16.12;80.31
61035;BME280;46916;40.564;-7.958;2024-02-15T05:58:26;96832.44;;;16.10;80.60
61035;BME280;46916;40.564;-7.958;2024-02-15T06:00:26;96832.63;;;16.08;80.95
61035;BME280;46916;40.564;-7.958;2024-02-15T06:02:30;96844.97;;;16.08;80.76
61035;BME280;46916;40.564;-7.958;2024-02-15T06:04:31;96848.63;;;16.07;80.60
61035;BME280;46916;40.564;-7.958;2024-02-15T06:06:31;96843.53;;;16.05;81.23
61035;BME280;46916;40.564;-7.958;2024-02-15T06:08:32;96848.81;;;16.05;81.18
61035;BME280;46916;40.564;-7.958;2024-02-15T06:10:34;96854.09;;;16.05;81.22
61035;BME280;46916;40.564;-7.958;2024-02-15T06:12:34;96860.00;;;16.07;81.14
61035;BME280;46916;40.564;-7.958;2024-02-15T06:14:35;96852.75;;;16.09;81.16
61035;BME280;46916;40.564;-7.958;2024-02-15T06:16:41;96853.56;;;16.10;81.48
61035;BME280;46916;40.564;-7.958;2024-02-15T06:18:42;96860.47;;;16.11;81.56
61035;BME280;46916;40.564;-7.958;2024-02-15T06:20:42;96852.75;;;16.09;81.83
61035;BME280;46916;40.564;-7.958;2024-02-15T06:22:43;96852.91;;;16.08;82.29
61035;BME280;46916;40.564;-7.958;2024-02-15T06:24:44;96849.44;;;16.07;82.39
61035;BME280;46916;40.564;-7.958;2024-02-15T06:26:44;96863.47;;;16.08;82.48
61035;BME280;46916;40.564;-7.958;2024-02-15T06:28:45;96854.72;;;16.07;82.83
61035;BME280;46916;40.564;-7.958;2024-02-15T06:31:04;96853.75;;;16.08;82.93
61035;BME280;46916;40.564;-7.958;2024-02-15T06:33:23;96851.94;;;16.09;82.92
61035;BME280;46916;40.564;-7.958;2024-02-15T06:35:42;96867.59;;;16.10;83.13
61035;BME280;46916;40.564;-7.958;2024-02-15T06:38:00;96858.38;;;16.06;83.06
61035;BME280;46916;40.564;-7.958;2024-02-15T06:40:19;96857.75;;;16.04;83.58
61035;BME280;46916;40.564;-7.958;2024-02-15T06:42:20;96859.72;;;16.02;83.86
61035;BME280;46916;40.564;-7.958;2024-02-15T06:44:20;96859.72;;;16.02;84.40
61035;BME280;46916;40.564;-7.958;2024-02-15T06:46:21;96866.00;;;16.01;84.70
61035;BME280;46916;40.564;-7.958;2024-02-15T06:48:21;96864.19;;;16.02;85.04
61035;BME280;46916;40.564;-7.958;2024-02-15T06:50:22;96871.31;;;16.01;85.28
61035;BME280;46916;40.564;-7.958;2024-02-15T06:52:22;96876.94;;;15.98;85.52
61035;BME280;46916;40.564;-7.958;2024-02-15T06:54:23;96877.13;;;15.97;85.97
61035;BME280;46916;40.564;-7.958;2024-02-15T06:56:24;96868.72;;;15.93;85.90
61035;BME280;46916;40.564;-7.958;2024-02-15T06:58:25;96871.19;;;15.95;86.39
61035;BME280;46916;40.564;-7.958;2024-02-15T07:00:25;96881.75;;;15.95;86.51
61035;BME280;46916;40.564;-7.958;2024-02-15T07:02:26;96873.00;;;15.94;86.22
61035;BME280;46916;40.564;-7.958;2024-02-15T07:04:27;96876.47;;;15.95;86.74
61035;BME280;46916;40.564;-7.958;2024-02-15T07:06:27;96887.03;;;15.95;87.25
61035;BME280;46916;40.564;-7.958;2024-02-15T07:08:29;96894.31;;;15.93;87.41
61035;BME280;46916;40.564;-7.958;2024-02-15T07:10:30;96893.03;;;15.89;87.61
61035;BME280;46916;40.564;-7.958;2024-02-15T07:12:31;96893.66;;;15.91;87.99
61035;BME280;46916;40.564;-7.958;2024-02-15T07:14:32;96889.56;;;15.88;88.32
61035;BME280;46916;40.564;-7.958;2024-02-15T07:16:33;96895.81;;;15.87;88.47
61035;BME280;46916;40.564;-7.958;2024-02-15T07:18:34;96887.09;;;15.87;89.02
61035;BME280;46916;40.564;-7.958;2024-02-15T07:20:34;96891.47;;;15.94;88.71
61035;BME280;46916;40.564;-7.958;2024-02-15T07:22:35;96898.78;;;15.92;89.24
61035;BME280;46916;40.564;-7.958;2024-02-15T07:24:37;96894.94;;;15.95;89.17
61035;BME280;46916;40.564;-7.958;2024-02-15T07:26:41;96901.03;;;15.95;89.44
61035;BME280;46916;40.564;-7.958;2024-02-15T07:28:41;96901.88;;;15.96;89.52
61035;BME280;46916;40.564;-7.958;2024-02-15T07:30:42;96901.56;;;15.91;89.93
61035;BME280;46916;40.564;-7.958;2024-02-15T07:32:42;96908.88;;;15.89;91.91
61035;BME280;46916;40.564;-7.958;2024-02-15T07:34:43;96912.84;;;15.84;93.13
61035;BME280;46916;40.564;-7.958;2024-02-15T07:36:45;96932.50;;;15.82;96.31
61035;BME280;46916;40.564;-7.958;2024-02-15T07:38:47;96922.00;;;15.74;99.49
61035;BME280;46916;40.564;-7.958;2024-02-15T07:40:49;96931.78;;;15.65;100.00
61035;BME280;46916;40.564;-7.958;2024-02-15T07:42:50;96938.88;;;15.56;100.00
61035;BME280;46916;40.564;-7.958;2024-02-15T07:44:52;96943.22;;;15.49;100.00
61035;BME280;46916;40.564;-7.958;2024-02-15T07:46:53;96939.78;;;15.41;100.00
61035;BME280;46916;40.564;-7.958;2024-02-15T07:48:53;96946.72;;;15.33;100.00
61035;BME280;46916;40.564;-7.958;2024-02-15T07:50:53;96951.22;;;15.25;100.00
61035;BME280;46916;40.564;-7.958;2024-02-15T07:52:54;96958.00;;;15.19;100.00
61035;BME280;46916;40.564;-7.958;2024-02-15T07:54:55;96954.22;;;15.14;100.00
61035;BME280;46916;40.564;-7.958;2024-02-15T07:56:56;96957.38;;;15.09;100.00
61035;BME280;46916;40.564;-7.958;2024-02-15T07:58:58;96960.53;;;15.04;100.00
61035;BME280;46916;40.564;-7.958;2024-02-15T08:00:59;96951.31;;;15.00;100.00
61035;BME280;46916;40.564;-7.958;2024-02-15T08:03:00;96920.16;;;14.96;100.00
61035;BME280;46916;40.564;-7.958;2024-02-15T08:05:00;96916.41;;;14.90;100.00
61035;BME280;46916;40.564;-7.958;2024-02-15T08:07:05;96934.19;;;14.88;100.00
61035;BME280;46916;40.564;-7.958;2024-02-15T08:09:06;96937.81;;;14.87;100.00
61035;BME280;46916;40.564;-7.958;2024-02-15T08:11:09;96941.28;;;14.88;100.00
61035;BME280;46916;40.564;-7.958;2024-02-15T08:13:16;96930.75;;;14.88;100.00
61035;BME280;46916;40.564;-7.958;2024-02-15T08:15:17;96925.66;;;14.86;100.00
61035;BME280;46916;40.564;-7.958;2024-02-15T08:17:18;96927.63;;;14.84;100.00
61035;BME280;46916;40.564;-7.958;2024-02-15T08:19:19;96931.25;;;14.83;100.00
61035;BME280;46916;40.564;-7.958;2024-02-15T08:21:19;96930.44;;;14.82;100.00
61035;BME280;46916;40.564;-7.958;2024-02-15T08:23:25;96934.88;;;14.82;100.00
61035;BME280;46916;40.564;-7.958;2024-02-15T08:25:27;96942.78;;;14.82;100.00
61035;BME280;46916;40.564;-7.958;2024-02-15T08:27:28;96948.06;;;14.82;100.00
61035;BME280;46916;40.564;-7.958;2024-02-15T08:29:32;96947.41;;;14.80;100.00
61035;BME280;46916;40.564;-7.958;2024-02-15T08:31:34;96940.16;;;14.82;100.00
61035;BME280;46916;40.564;-7.958;2024-02-15T08:33:34;96955.63;;;14.85;100.00
61035;BME280;46916;40.564;-7.958;2024-02-15T08:35:36;96962.38;;;14.88;100.00
61035;BME280;46916;40.564;-7.958;2024-02-15T08:37:36;96968.13;;;14.91;100.00
61035;BME280;46916;40.564;-7.958;2024-02-15T08:39:38;96970.59;;;14.93;100.00
61035;BME280;46916;40.564;-7.958;2024-02-15T08:41:38;96975.38;;;14.97;100.00
61035;BME280;46916;40.564;-7.958;2024-02-15T08:43:39;96964.47;;;15.00;100.00
61035;BME280;46916;40.564;-7.958;2024-02-15T08:45:42;96944.22;;;15.01;100.00
61035;BME280;46916;40.564;-7.958;2024-02-15T08:47:43;96962.16;;;15.05;100.00
61035;BME280;46916;40.564;-7.958;2024-02-15T08:49:43;96974.53;;;15.05;100.00
61035;BME280;46916;40.564;-7.958;2024-02-15T08:51:44;96969.25;;;15.05;100.00
61035;BME280;46916;40.564;-7.958;2024-02-15T08:53:45;96967.63;;;15.04;100.00
61035;BME280;46916;40.564;-7.958;2024-02-15T08:55:45;96965.47;;;15.07;100.00
61035;BME280;46916;40.564;-7.958;2024-02-15T08:57:46;96960.69;;;15.03;100.00
61035;BME280;46916;40.564;-7.958;2024-02-15T08:59:46;96966.78;;;15.03;100.00
61035;BME280;46916;40.564;-7.958;2024-02-15T09:01:47;96972.88;;;15.04;100.00
61035;BME280;46916;40.564;-7.958;2024-02-15T09:03:47;96979.16;;;15.03;100.00
61035;BME280;46916;40.564;-7.958;2024-02-15T09:05:48;96974.03;;;15.01;100.00
61035;BME280;46916;40.564;-7.958;2024-02-15T09:07:49;96968.63;;;15.03;100.00
61035;BME280;46916;40.564;-7.958;2024-02-15T09:09:52;96981.63;;;15.04;100.00
61035;BME280;46916;40.564;-7.958;2024-02-15T09:11:52;96989.53;;;15.04;100.00
61035;BME280;46916;40.564;-7.958;2024-02-15T09:13:54;96996.44;;;15.05;100.00
61035;BME280;46916;40.564;-7.958;2024-02-15T09:15:55;96995.47;;;15.06;100.00
61035;BME280;46916;40.564;-7.958;2024-02-15T09:17:55;96984.06;;;15.06;100.00
61035;BME280;46916;40.564;-7.958;2024-02-15T09:19:58;96981.31;;;14.99;100.00
61035;BME280;46916;40.564;-7.958;2024-02-15T09:21:59;96981.63;;;14.96;100.00
61035;BME280;46916;40.564;-7.958;2024-02-15T09:23:59;96984.28;;;14.96;100.00
61035;BME280;46916;40.564;-7.958;2024-02-15T09:26:00;96979.00;;;14.96;100.00
61035;BME280;46916;40.564;-7.958;2024-02-15T09:28:00;96981.63;;;14.96;100.00
61035;BME280;46916;40.564;-7.958;2024-02-15T09:30:01;96973.72;;;14.96;100.00
61035;BME280;46916;40.564;-7.958;2024-02-15T09:32:01;96968.63;;;14.95;100.00
61035;BME280;46916;40.564;-7.958;2024-02-15T09:34:02;96966.16;;;14.93;100.00
61035;BME280;46916;40.564;-7.958;2024-02-15T09:36:06;96968.97;;;14.92;100.00
61035;BME280;46916;40.564;-7.958;2024-02-15T09:38:07;96963.50;;;14.93;100.00
61035;BME280;46916;40.564;-7.958;2024-02-15T09:40:10;96967.31;;;14.91;100.00
61035;BME280;46916;40.564;-7.958;2024-02-15T09:42:14;96985.28;;;14.87;100.00
61035;BME280;46916;40.564;-7.958;2024-02-15T09:44:15;97016.94;;;14.87;100.00
61035;BME280;46916;40.564;-7.958;2024-02-15T09:46:16;97048.56;;;14.87;100.00
61035;BME280;46916;40.564;-7.958;2024-02-15T09:48:17;97033.38;;;14.81;100.00
61035;BME280;46916;40.564;-7.958;2024-02-15T09:50:18;97034.88;;;14.75;100.00
61035;BME280;46916;40.564;-7.958;2024-02-15T09:52:19;97035.72;;;14.76;100.00
61035;BME280;46916;40.564;-7.958;2024-02-15T09:54:19;97049.06;;;14.74;100.00
61035;BME280;46916;40.564;-7.958;2024-02-15T09:56:22;97047.75;;;14.70;100.00
61035;BME280;46916;40.564;-7.958;2024-02-15T09:58:25;97054.34;;;14.66;100.00
61035;BME280;46916;40.564;-7.958;2024-02-15T10:00:26;97038.66;;;14.65;100.00
61035;BME280;46916;40.564;-7.958;2024-02-15T10:02:26;97027.97;;;14.66;100.00
61035;BME280;46916;40.564;-7.958;2024-02-15T10:04:27;97044.94;;;14.64;100.00
61035;BME280;46916;40.564;-7.958;2024-02-15T10:06:28;97058.78;;;14.57;100.00
61035;BME280;46916;40.564;-7.958;2024-02-15T10:08:29;97068.16;;;14.60;100.00
61035;BME280;46916;40.564;-7.958;2024-02-15T10:10:30;97069.66;;;14.63;100.00
61035;BME280;46916;40.564;-7.958;2024-02-15T10:12:37;97050.72;;;14.67;100.00
61035;BME280;46916;40.564;-7.958;2024-02-15T10:14:39;97054.97;;;14.68;100.00
61035;BME280;46916;40.564;-7.958;2024-02-15T10:16:47;97050.53;;;14.69;100.00
61035;BME280;46916;40.564;-7.958;2024-02-15T10:18:48;97060.25;;;14.68;100.00
61035;BME280;46916;40.564;-7.958;2024-02-15T10:20:57;97080.69;;;14.66;100.00
61035;BME280;46916;40.564;-7.958;2024-02-15T10:25:13;97092.69;;;14.69;100.00
61035;BME280;46916;40.564;-7.958;2024-02-15T10:27:14;97100.47;;;14.70;100.00
61035;BME280;46916;40.564;-7.958;2024-02-15T10:29:23;97089.56;;;14.73;100.00
61035;BME280;46916;40.564;-7.958;2024-02-15T10:31:23;97097.97;;;14.77;100.00
61035;BME280;46916;40.564;-7.958;2024-02-15T10:33:28;97091.25;;;14.82;100.00